Terminal Aerodrome Forecast
Issued by NWS

Home | Current Version | Previous Version | Text Only | Print | Product List | Glossary On
Versions: 1 2 3 4 5 6 7 8 9 10 11 12 13 14 15 16 17 18 19 20 21 22 23 24 25
000
FTUS45 KABQ 271200 AAA
TAFTCC
TAF AMD
KTCC 271245Z 2713/2812 12013KT 6SM -SN BR BKN040 OVC070
      TEMPO 2713/2715 4SM BR BKN015
     FM271600 17013KT 5SM BR SCT009 OVC019
     FM280400 20010KT 2SM -SN BR BKN009=

USA.gov is the U.S. government's official web portal to all federal, state and local government web resources and services.